sensor_id;sensor_type;location;lat;lon;timestamp;P1;durP1;ratioP1;P2;durP2;ratioP2
665;SDS011;315;48.738;9.126;2024-03-08T00:00:58;30.87;;;20.73;;
665;SDS011;315;48.738;9.126;2024-03-08T00:03:23;32.23;;;20.90;;
665;SDS011;315;48.738;9.126;2024-03-08T00:05:49;26.90;;;20.03;;
665;SDS011;315;48.738;9.126;2024-03-08T00:08:14;28.40;;;21.33;;
665;SDS011;315;48.738;9.126;2024-03-08T00:10:40;35.97;;;22.10;;
665;SDS011;315;48.738;9.126;2024-03-08T00:13:05;30.00;;;21.27;;
665;SDS011;315;48.738;9.126;2024-03-08T00:15:31;31.37;;;22.40;;
665;SDS011;315;48.738;9.126;2024-03-08T00:17:57;27.13;;;20.37;;
665;SDS011;315;48.738;9.126;2024-03-08T00:20:22;28.17;;;19.93;;
665;SDS011;315;48.738;9.126;2024-03-08T00:22:48;28.90;;;21.50;;
665;SDS011;315;48.738;9.126;2024-03-08T00:25:13;31.27;;;21.50;;
665;SDS011;315;48.738;9.126;2024-03-08T00:27:39;30.50;;;20.60;;
665;SDS011;315;48.738;9.126;2024-03-08T00:30:06;26.90;;;19.40;;
665;SDS011;315;48.738;9.126;2024-03-08T00:32:32;29.60;;;21.10;;
665;SDS011;315;48.738;9.126;2024-03-08T00:34:58;28.17;;;21.23;;
665;SDS011;315;48.738;9.126;2024-03-08T00:37:24;26.17;;;20.70;;
665;SDS011;315;48.738;9.126;2024-03-08T00:39:49;34.63;;;21.47;;
665;SDS011;315;48.738;9.126;2024-03-08T00:42:16;30.67;;;20.00;;
665;SDS011;315;48.738;9.126;2024-03-08T00:44:42;30.17;;;20.33;;
665;SDS011;315;48.738;9.126;2024-03-08T00:47:07;33.40;;;21.17;;
665;SDS011;315;48.738;9.126;2024-03-08T00:49:33;34.00;;;22.00;;
665;SDS011;315;48.738;9.126;2024-03-08T00:51:59;29.03;;;19.70;;
665;SDS011;315;48.738;9.126;2024-03-08T00:54:25;27.23;;;19.40;;
665;SDS011;315;48.738;9.126;2024-03-08T00:56:51;33.40;;;20.87;;
665;SDS011;315;48.738;9.126;2024-03-08T00:59:16;28.37;;;19.97;;
665;SDS011;315;48.738;9.126;2024-03-08T01:01:42;30.60;;;20.40;;
665;SDS011;315;48.738;9.126;2024-03-08T01:04:09;27.40;;;19.43;;
665;SDS011;315;48.738;9.126;2024-03-08T01:06:34;28.40;;;19.10;;
665;SDS011;315;48.738;9.126;2024-03-08T01:09:00;26.17;;;19.47;;
665;SDS011;315;48.738;9.126;2024-03-08T01:11:26;28.03;;;19.67;;
665;SDS011;315;48.738;9.126;2024-03-08T01:13:53;28.63;;;19.00;;
665;SDS011;315;48.738;9.126;2024-03-08T01:16:18;24.40;;;18.40;;
665;SDS011;315;48.738;9.126;2024-03-08T01:18:45;31.00;;;22.70;;
665;SDS011;315;48.738;9.126;2024-03-08T01:21:11;29.80;;;19.10;;
665;SDS011;315;48.738;9.126;2024-03-08T01:23:36;29.07;;;20.27;;
665;SDS011;315;48.738;9.126;2024-03-08T01:26:02;28.57;;;19.23;;
665;SDS011;315;48.738;9.126;2024-03-08T01:28:28;26.30;;;18.00;;
665;SDS011;315;48.738;9.126;2024-03-08T01:30:54;31.13;;;19.77;;
665;SDS011;315;48.738;9.126;2024-03-08T01:33:24;29.20;;;20.23;;
665;SDS011;315;48.738;9.126;2024-03-08T01:35:50;27.90;;;21.70;;
665;SDS011;315;48.738;9.126;2024-03-08T01:38:19;30.23;;;20.80;;
665;SDS011;315;48.738;9.126;2024-03-08T01:40:48;29.57;;;19.77;;
665;SDS011;315;48.738;9.126;2024-03-08T01:43:16;31.67;;;21.17;;
665;SDS011;315;48.738;9.126;2024-03-08T01:45:53;28.47;;;19.80;;
665;SDS011;315;48.738;9.126;2024-03-08T01:48:20;29.67;;;17.97;;
665;SDS011;315;48.738;9.126;2024-03-08T01:50:48;29.07;;;20.60;;
665;SDS011;315;48.738;9.126;2024-03-08T01:53:14;32.10;;;21.73;;
665;SDS011;315;48.738;9.126;2024-03-08T01:55:42;26.00;;;19.90;;
665;SDS011;315;48.738;9.126;2024-03-08T01:58:11;27.50;;;19.90;;
665;SDS011;315;48.738;9.126;2024-03-08T02:00:36;27.47;;;21.80;;
665;SDS011;315;48.738;9.126;2024-03-08T02:03:05;25.97;;;19.23;;
665;SDS011;315;48.738;9.126;2024-03-08T02:05:30;34.93;;;21.20;;
665;SDS011;315;48.738;9.126;2024-03-08T02:07:57;30.67;;;20.07;;
665;SDS011;315;48.738;9.126;2024-03-08T02:10:24;29.27;;;20.00;;
665;SDS011;315;48.738;9.126;2024-03-08T02:12:49;30.27;;;19.13;;
665;SDS011;315;48.738;9.126;2024-03-08T02:15:15;25.33;;;19.37;;
665;SDS011;315;48.738;9.126;2024-03-08T02:17:41;26.60;;;18.40;;
665;SDS011;315;48.738;9.126;2024-03-08T02:20:07;24.20;;;18.03;;
665;SDS011;315;48.738;9.126;2024-03-08T02:22:34;31.60;;;18.23;;
665;SDS011;315;48.738;9.126;2024-03-08T02:25:00;27.13;;;18.20;;
665;SDS011;315;48.738;9.126;2024-03-08T02:27:28;26.57;;;18.40;;
665;SDS011;315;48.738;9.126;2024-03-08T02:29:55;28.70;;;18.57;;
665;SDS011;315;48.738;9.126;2024-03-08T02:32:24;28.90;;;18.10;;
665;SDS011;315;48.738;9.126;2024-03-08T02:34:50;22.43;;;17.53;;
665;SDS011;315;48.738;9.126;2024-03-08T02:37:16;29.50;;;17.53;;
665;SDS011;315;48.738;9.126;2024-03-08T02:39:42;27.40;;;19.27;;
665;SDS011;315;48.738;9.126;2024-03-08T02:42:08;27.30;;;17.47;;
665;SDS011;315;48.738;9.126;2024-03-08T02:44:34;23.90;;;17.30;;
665;SDS011;315;48.738;9.126;2024-03-08T02:46:59;28.67;;;21.03;;
665;SDS011;315;48.738;9.126;2024-03-08T02:49:25;25.20;;;15.90;;
665;SDS011;315;48.738;9.126;2024-03-08T02:51:52;25.60;;;18.00;;
665;SDS011;315;48.738;9.126;2024-03-08T02:54:18;30.47;;;16.67;;
665;SDS011;315;48.738;9.126;2024-03-08T02:56:44;29.17;;;18.67;;
665;SDS011;315;48.738;9.126;2024-03-08T02:59:11;27.40;;;18.13;;
665;SDS011;315;48.738;9.126;2024-03-08T03:01:37;24.33;;;15.80;;
665;SDS011;315;48.738;9.126;2024-03-08T03:04:03;22.17;;;16.37;;
665;SDS011;315;48.738;9.126;2024-03-08T03:06:29;23.40;;;17.00;;
665;SDS011;315;48.738;9.126;2024-03-08T03:08:54;21.77;;;15.87;;
665;SDS011;315;48.738;9.126;2024-03-08T03:11:22;26.80;;;16.83;;
665;SDS011;315;48.738;9.126;2024-03-08T03:13:48;21.00;;;15.27;;
665;SDS011;315;48.738;9.126;2024-03-08T03:16:17;20.90;;;15.90;;
665;SDS011;315;48.738;9.126;2024-03-08T03:18:44;24.43;;;17.00;;
665;SDS011;315;48.738;9.126;2024-03-08T03:21:10;24.70;;;17.47;;
665;SDS011;315;48.738;9.126;2024-03-08T03:23:37;21.83;;;16.03;;
665;SDS011;315;48.738;9.126;2024-03-08T03:26:07;29.03;;;16.17;;
665;SDS011;315;48.738;9.126;2024-03-08T03:28:37;27.13;;;18.20;;
665;SDS011;315;48.738;9.126;2024-03-08T03:31:04;25.77;;;16.80;;
665;SDS011;315;48.738;9.126;2024-03-08T03:33:32;25.00;;;19.17;;
665;SDS011;315;48.738;9.126;2024-03-08T03:36:01;21.93;;;15.77;;
665;SDS011;315;48.738;9.126;2024-03-08T03:38:27;23.73;;;16.30;;
665;SDS011;315;48.738;9.126;2024-03-08T03:40:53;25.47;;;16.77;;
665;SDS011;315;48.738;9.126;2024-03-08T03:43:22;23.33;;;17.13;;
665;SDS011;315;48.738;9.126;2024-03-08T03:45:48;24.57;;;17.80;;
665;SDS011;315;48.738;9.126;2024-03-08T03:48:14;32.33;;;17.30;;
665;SDS011;315;48.738;9.126;2024-03-08T03:50:39;25.00;;;17.03;;
665;SDS011;315;48.738;9.126;2024-03-08T03:53:05;24.43;;;17.17;;
665;SDS011;315;48.738;9.126;2024-03-08T03:55:34;22.00;;;17.50;;
665;SDS011;315;48.738;9.126;2024-03-08T03:58:01;25.13;;;17.70;;
665;SDS011;315;48.738;9.126;2024-03-08T04:00:27;26.13;;;17.07;;
665;SDS011;315;48.738;9.126;2024-03-08T04:02:53;26.60;;;16.87;;
665;SDS011;315;48.738;9.126;2024-03-08T04:05:19;23.57;;;17.77;;
665;SDS011;315;48.738;9.126;2024-03-08T04:07:45;27.77;;;18.97;;
665;SDS011;315;48.738;9.126;2024-03-08T04:10:11;23.50;;;17.10;;
665;SDS011;315;48.738;9.126;2024-03-08T04:12:37;26.30;;;18.50;;
665;SDS011;315;48.738;9.126;2024-03-08T04:15:03;27.27;;;17.90;;
665;SDS011;315;48.738;9.126;2024-03-08T04:17:32;27.80;;;18.40;;
665;SDS011;315;48.738;9.126;2024-03-08T04:19:58;28.43;;;18.90;;
665;SDS011;315;48.738;9.126;2024-03-08T04:22:23;24.80;;;18.43;;
665;SDS011;315;48.738;9.126;2024-03-08T04:24:49;29.00;;;18.67;;
665;SDS011;315;48.738;9.126;2024-03-08T04:27:15;25.30;;;18.00;;
665;SDS011;315;48.738;9.126;2024-03-08T04:29:41;29.10;;;18.80;;
665;SDS011;315;48.738;9.126;2024-03-08T04:32:07;27.40;;;18.33;;
665;SDS011;315;48.738;9.126;2024-03-08T04:34:33;31.90;;;20.00;;
665;SDS011;315;48.738;9.126;2024-03-08T04:36:59;34.30;;;19.70;;
665;SDS011;315;48.738;9.126;2024-03-08T04:39:26;28.43;;;18.90;;
665;SDS011;315;48.738;9.126;2024-03-08T04:41:53;28.10;;;19.30;;
665;SDS011;315;48.738;9.126;2024-03-08T04:44:21;24.43;;;17.70;;
665;SDS011;315;48.738;9.126;2024-03-08T04:46:47;27.17;;;19.60;;
665;SDS011;315;48.738;9.126;2024-03-08T04:49:13;28.43;;;20.00;;
665;SDS011;315;48.738;9.126;2024-03-08T04:51:38;31.70;;;19.90;;
665;SDS011;315;48.738;9.126;2024-03-08T04:54:05;31.03;;;20.57;;
665;SDS011;315;48.738;9.126;2024-03-08T04:56:30;30.90;;;19.73;;
665;SDS011;315;48.738;9.126;2024-03-08T04:58:56;27.47;;;20.50;;
665;SDS011;315;48.738;9.126;2024-03-08T05:01:22;35.27;;;22.00;;
665;SDS011;315;48.738;9.126;2024-03-08T05:03:47;28.30;;;19.50;;
665;SDS011;315;48.738;9.126;2024-03-08T05:06:15;28.40;;;19.47;;
665;SDS011;315;48.738;9.126;2024-03-08T05:08:41;27.30;;;18.80;;
665;SDS011;315;48.738;9.126;2024-03-08T05:11:06;32.07;;;21.87;;
665;SDS011;315;48.738;9.126;2024-03-08T05:13:32;31.57;;;19.73;;
665;SDS011;315;48.738;9.126;2024-03-08T05:15:59;27.97;;;19.70;;
665;SDS011;315;48.738;9.126;2024-03-08T05:18:24;27.27;;;18.87;;
665;SDS011;315;48.738;9.126;2024-03-08T05:20:50;25.60;;;19.60;;
665;SDS011;315;48.738;9.126;2024-03-08T05:23:16;30.80;;;19.20;;
665;SDS011;315;48.738;9.126;2024-03-08T05:25:44;28.30;;;19.33;;
665;SDS011;315;48.738;9.126;2024-03-08T05:28:11;30.23;;;21.17;;
665;SDS011;315;48.738;9.126;2024-03-08T05:30:37;27.23;;;19.17;;
665;SDS011;315;48.738;9.126;2024-03-08T05:33:03;32.17;;;21.90;;
665;SDS011;315;48.738;9.126;2024-03-08T05:35:29;30.87;;;20.77;;
665;SDS011;315;48.738;9.126;2024-03-08T05:37:55;25.13;;;19.30;;
665;SDS011;315;48.738;9.126;2024-03-08T05:40:21;29.87;;;22.93;;
665;SDS011;315;48.738;9.126;2024-03-08T05:42:46;32.57;;;21.87;;
665;SDS011;315;48.738;9.126;2024-03-08T05:45:12;30.53;;;20.53;;
665;SDS011;315;48.738;9.126;2024-03-08T05:47:39;28.80;;;20.43;;
665;SDS011;315;48.738;9.126;2024-03-08T05:50:05;28.73;;;18.70;;
665;SDS011;315;48.738;9.126;2024-03-08T05:52:33;29.93;;;19.63;;
665;SDS011;315;48.738;9.126;2024-03-08T05:54:58;30.80;;;19.57;;
665;SDS011;315;48.738;9.126;2024-03-08T05:57:24;27.43;;;20.67;;
665;SDS011;315;48.738;9.126;2024-03-08T05:59:49;32.43;;;22.37;;
665;SDS011;315;48.738;9.126;2024-03-08T06:02:15;32.10;;;21.20;;
665;SDS011;315;48.738;9.126;2024-03-08T06:04:44;31.90;;;19.13;;
665;SDS011;315;48.738;9.126;2024-03-08T06:07:12;28.30;;;19.37;;
665;SDS011;315;48.738;9.126;2024-03-08T06:09:38;33.50;;;21.57;;
665;SDS011;315;48.738;9.126;2024-03-08T06:12:03;33.30;;;22.20;;
665;SDS011;315;48.738;9.126;2024-03-08T06:14:31;29.83;;;19.80;;
665;SDS011;315;48.738;9.126;2024-03-08T06:16:57;34.80;;;22.53;;
665;SDS011;315;48.738;9.126;2024-03-08T06:19:22;29.83;;;19.70;;
665;SDS011;315;48.738;9.126;2024-03-08T06:21:48;26.40;;;20.60;;
665;SDS011;315;48.738;9.126;2024-03-08T06:24:14;28.57;;;21.60;;
665;SDS011;315;48.738;9.126;2024-03-08T06:26:40;35.43;;;22.40;;
665;SDS011;315;48.738;9.126;2024-03-08T06:29:06;27.00;;;20.40;;
665;SDS011;315;48.738;9.126;2024-03-08T06:31:34;26.70;;;19.43;;
665;SDS011;315;48.738;9.126;2024-03-08T06:34:03;30.20;;;19.90;;
665;SDS011;315;48.738;9.126;2024-03-08T06:36:32;32.27;;;22.40;;
665;SDS011;315;48.738;9.126;2024-03-08T06:38:58;28.30;;;20.03;;
665;SDS011;315;48.738;9.126;2024-03-08T06:41:24;27.73;;;20.60;;
665;SDS011;315;48.738;9.126;2024-03-08T06:43:49;28.83;;;20.20;;
665;SDS011;315;48.738;9.126;2024-03-08T06:46:16;30.27;;;20.30;;
665;SDS011;315;48.738;9.126;2024-03-08T06:48:42;27.43;;;19.13;;
665;SDS011;315;48.738;9.126;2024-03-08T06:51:08;25.37;;;18.90;;
665;SDS011;315;48.738;9.126;2024-03-08T06:53:35;29.97;;;20.17;;
665;SDS011;315;48.738;9.126;2024-03-08T06:56:01;29.63;;;20.67;;
665;SDS011;315;48.738;9.126;2024-03-08T06:58:27;32.43;;;22.27;;
665;SDS011;315;48.738;9.126;2024-03-08T07:00:53;29.40;;;20.30;;
665;SDS011;315;48.738;9.126;2024-03-08T07:03:19;29.23;;;20.77;;
665;SDS011;315;48.738;9.126;2024-03-08T07:05:47;27.63;;;20.43;;
665;SDS011;315;48.738;9.126;2024-03-08T07:08:12;26.00;;;19.57;;
665;SDS011;315;48.738;9.126;2024-03-08T07:10:39;29.10;;;20.87;;
665;SDS011;315;48.738;9.126;2024-03-08T07:13:06;25.20;;;19.43;;
665;SDS011;315;48.738;9.126;2024-03-08T07:15:32;26.40;;;18.53;;
665;SDS011;315;48.738;9.126;2024-03-08T07:17:58;27.17;;;18.83;;
665;SDS011;315;48.738;9.126;2024-03-08T07:20:24;23.00;;;17.77;;
665;SDS011;315;48.738;9.126;2024-03-08T07:22:50;24.87;;;19.03;;
665;SDS011;315;48.738;9.126;2024-03-08T07:25:16;27.87;;;20.50;;
665;SDS011;315;48.738;9.126;2024-03-08T07:27:48;28.50;;;19.20;;
665;SDS011;315;48.738;9.126;2024-03-08T07:30:14;26.53;;;19.33;;
665;SDS011;315;48.738;9.126;2024-03-08T07:33:00;23.83;;;18.70;;
665;SDS011;315;48.738;9.126;2024-03-08T07:35:27;26.60;;;19.40;;
665;SDS011;315;48.738;9.126;2024-03-08T07:37:56;26.90;;;19.20;;
665;SDS011;315;48.738;9.126;2024-03-08T07:40:21;24.17;;;18.63;;
665;SDS011;315;48.738;9.126;2024-03-08T07:42:48;29.07;;;18.33;;
665;SDS011;315;48.738;9.126;2024-03-08T07:45:14;28.67;;;20.27;;
665;SDS011;315;48.738;9.126;2024-03-08T07:47:41;28.10;;;18.53;;
665;SDS011;315;48.738;9.126;2024-03-08T07:50:06;25.67;;;19.40;;
665;SDS011;315;48.738;9.126;2024-03-08T07:52:33;27.77;;;19.10;;
665;SDS011;315;48.738;9.126;2024-03-08T07:54:59;29.03;;;18.53;;
665;SDS011;315;48.738;9.126;2024-03-08T07:57:25;29.00;;;19.50;;
665;SDS011;315;48.738;9.126;2024-03-08T07:59:51;26.60;;;18.00;;
665;SDS011;315;48.738;9.126;2024-03-08T08:02:17;22.77;;;17.80;;
665;SDS011;315;48.738;9.126;2024-03-08T08:04:42;24.87;;;18.37;;
665;SDS011;315;48.738;9.126;2024-03-08T08:07:09;28.40;;;19.80;;
665;SDS011;315;48.738;9.126;2024-03-08T08:09:36;26.67;;;19.13;;
665;SDS011;315;48.738;9.126;2024-03-08T08:12:02;26.93;;;19.87;;
665;SDS011;315;48.738;9.126;2024-03-08T08:14:28;30.13;;;19.23;;
665;SDS011;315;48.738;9.126;2024-03-08T08:16:54;24.93;;;17.80;;
665;SDS011;315;48.738;9.126;2024-03-08T08:19:22;28.07;;;20.33;;
665;SDS011;315;48.738;9.126;2024-03-08T08:21:47;24.17;;;17.30;;
665;SDS011;315;48.738;9.126;2024-03-08T08:24:13;28.50;;;19.23;;
665;SDS011;315;48.738;9.126;2024-03-08T08:26:39;29.60;;;19.23;;
665;SDS011;315;48.738;9.126;2024-03-08T08:29:05;28.27;;;20.77;;
665;SDS011;315;48.738;9.126;2024-03-08T08:31:31;27.27;;;19.20;;
665;SDS011;315;48.738;9.126;2024-03-08T08:33:58;26.33;;;17.97;;
665;SDS011;315;48.738;9.126;2024-03-08T08:36:24;23.97;;;15.80;;
665;SDS011;315;48.738;9.126;2024-03-08T08:38:49;27.13;;;18.50;;
665;SDS011;315;48.738;9.126;2024-03-08T08:41:15;25.00;;;19.47;;
665;SDS011;315;48.738;9.126;2024-03-08T08:43:42;25.97;;;18.77;;
665;SDS011;315;48.738;9.126;2024-03-08T08:46:09;24.83;;;17.40;;
665;SDS011;315;48.738;9.126;2024-03-08T08:48:38;21.30;;;16.13;;
665;SDS011;315;48.738;9.126;2024-03-08T08:51:06;25.70;;;18.43;;
665;SDS011;315;48.738;9.126;2024-03-08T08:53:37;22.20;;;16.60;;
665;SDS011;315;48.738;9.126;2024-03-08T08:56:03;21.00;;;15.07;;
665;SDS011;315;48.738;9.126;2024-03-08T08:58:29;23.23;;;16.73;;
665;SDS011;315;48.738;9.126;2024-03-08T09:00:54;23.23;;;17.13;;
665;SDS011;315;48.738;9.126;2024-03-08T09:03:20;25.10;;;18.20;;
665;SDS011;315;48.738;9.126;2024-03-08T09:05:45;21.70;;;15.57;;
665;SDS011;315;48.738;9.126;2024-03-08T09:08:11;23.97;;;16.73;;
665;SDS011;315;48.738;9.126;2024-03-08T09:10:37;23.40;;;17.13;;
665;SDS011;315;48.738;9.126;2024-03-08T09:13:04;23.87;;;17.83;;
665;SDS011;315;48.738;9.126;2024-03-08T09:15:29;21.37;;;15.50;;
665;SDS011;315;48.738;9.126;2024-03-08T09:17:55;24.33;;;18.47;;
665;SDS011;315;48.738;9.126;2024-03-08T09:20:20;25.37;;;18.10;;
665;SDS011;315;48.738;9.126;2024-03-08T09:22:46;23.20;;;16.27;;
665;SDS011;315;48.738;9.126;2024-03-08T09:25:11;23.00;;;17.37;;
665;SDS011;315;48.738;9.126;2024-03-08T09:27:37;26.67;;;17.60;;
665;SDS011;315;48.738;9.126;2024-03-08T09:30:04;27.43;;;18.80;;
665;SDS011;315;48.738;9.126;2024-03-08T09:32:31;23.43;;;19.17;;
665;SDS011;315;48.738;9.126;2024-03-08T09:34:57;29.80;;;19.67;;
665;SDS011;315;48.738;9.126;2024-03-08T09:37:22;23.20;;;17.70;;
665;SDS011;315;48.738;9.126;2024-03-08T09:39:48;22.63;;;17.47;;
665;SDS011;315;48.738;9.126;2024-03-08T09:42:15;24.63;;;18.63;;
665;SDS011;315;48.738;9.126;2024-03-08T09:44:47;25.70;;;18.10;;
665;SDS011;315;48.738;9.126;2024-03-08T09:47:13;31.97;;;22.10;;
665;SDS011;315;48.738;9.126;2024-03-08T09:49:39;24.73;;;17.20;;
665;SDS011;315;48.738;9.126;2024-03-08T09:52:06;27.87;;;19.10;;
665;SDS011;315;48.738;9.126;2024-03-08T09:54:37;24.00;;;18.40;;
665;SDS011;315;48.738;9.126;2024-03-08T09:57:04;26.10;;;20.10;;
665;SDS011;315;48.738;9.126;2024-03-08T09:59:29;26.67;;;18.87;;
665;SDS011;315;48.738;9.126;2024-03-08T10:02:12;25.60;;;19.20;;
665;SDS011;315;48.738;9.126;2024-03-08T10:04:40;27.90;;;18.93;;
665;SDS011;315;48.738;9.126;2024-03-08T10:07:11;24.53;;;19.43;;
665;SDS011;315;48.738;9.126;2024-03-08T10:09:37;26.50;;;20.50;;
665;SDS011;315;48.738;9.126;2024-03-08T10:12:04;25.47;;;17.73;;
665;SDS011;315;48.738;9.126;2024-03-08T10:14:30;27.43;;;20.33;;
665;SDS011;315;48.738;9.126;2024-03-08T10:16:57;24.17;;;18.00;;
665;SDS011;315;48.738;9.126;2024-03-08T10:19:24;25.20;;;18.87;;
665;SDS011;315;48.738;9.126;2024-03-08T10:21:51;21.00;;;15.30;;
665;SDS011;315;48.738;9.126;2024-03-08T10:24:22;27.20;;;18.37;;
665;SDS011;315;48.738;9.126;2024-03-08T10:26:51;24.50;;;18.90;;
665;SDS011;315;48.738;9.126;2024-03-08T10:29:18;23.27;;;18.20;;
665;SDS011;315;48.738;9.126;2024-03-08T10:31:43;23.33;;;16.90;;
665;SDS011;315;48.738;9.126;2024-03-08T10:34:09;19.53;;;15.40;;
665;SDS011;315;48.738;9.126;2024-03-08T10:36:35;25.63;;;17.10;;
665;SDS011;315;48.738;9.126;2024-03-08T10:39:03;26.20;;;18.47;;
665;SDS011;315;48.738;9.126;2024-03-08T10:41:35;22.33;;;16.87;;
665;SDS011;315;48.738;9.126;2024-03-08T10:44:21;22.63;;;17.77;;
665;SDS011;315;48.738;9.126;2024-03-08T10:47:08;21.77;;;17.93;;
665;SDS011;315;48.738;9.126;2024-03-08T10:49:55;24.43;;;18.10;;
665;SDS011;315;48.738;9.126;2024-03-08T10:52:29;20.17;;;16.73;;
665;SDS011;315;48.738;9.126;2024-03-08T10:54:54;22.10;;;16.90;;
665;SDS011;315;48.738;9.126;2024-03-08T10:57:22;23.73;;;16.63;;
665;SDS011;315;48.738;9.126;2024-03-08T10:59:48;22.60;;;17.57;;
665;SDS011;315;48.738;9.126;2024-03-08T11:02:15;22.07;;;17.20;;
665;SDS011;315;48.738;9.126;2024-03-08T11:04:48;23.53;;;17.27;;
665;SDS011;315;48.738;9.126;2024-03-08T11:07:15;22.63;;;17.53;;
665;SDS011;315;48.738;9.126;2024-03-08T11:09:43;24.30;;;16.33;;
665;SDS011;315;48.738;9.126;2024-03-08T11:12:23;17.60;;;15.57;;
665;SDS011;315;48.738;9.126;2024-03-08T11:14:51;17.53;;;14.57;;
665;SDS011;315;48.738;9.126;2024-03-08T11:17:21;19.80;;;15.10;;
665;SDS011;315;48.738;9.126;2024-03-08T11:19:52;20.70;;;15.97;;
665;SDS011;315;48.738;9.126;2024-03-08T11:22:27;17.70;;;14.80;;
665;SDS011;315;48.738;9.126;2024-03-08T11:25:01;18.93;;;15.03;;
665;SDS011;315;48.738;9.126;2024-03-08T11:27:30;22.70;;;16.50;;
665;SDS011;315;48.738;9.126;2024-03-08T11:30:06;17.07;;;15.27;;
665;SDS011;315;48.738;9.126;2024-03-08T11:32:36;18.20;;;15.07;;
665;SDS011;315;48.738;9.126;2024-03-08T11:35:05;20.30;;;16.17;;
665;SDS011;315;48.738;9.126;2024-03-08T11:37:34;19.40;;;16.60;;
665;SDS011;315;48.738;9.126;2024-03-08T11:40:00;18.00;;;15.90;;
665;SDS011;315;48.738;9.126;2024-03-08T11:42:29;17.50;;;15.67;;
665;SDS011;315;48.738;9.126;2024-03-08T11:44:55;18.67;;;16.03;;
665;SDS011;315;48.738;9.126;2024-03-08T11:47:21;18.07;;;15.03;;
665;SDS011;315;48.738;9.126;2024-03-08T11:49:47;18.13;;;15.37;;
665;SDS011;315;48.738;9.126;2024-03-08T11:52:14;18.97;;;16.93;;
665;SDS011;315;48.738;9.126;2024-03-08T11:54:52;19.17;;;16.37;;
665;SDS011;315;48.738;9.126;2024-03-08T11:57:20;19.53;;;17.40;;
665;SDS011;315;48.738;9.126;2024-03-08T11:59:50;19.20;;;17.20;;
665;SDS011;315;48.738;9.126;2024-03-08T12:02:16;18.60;;;16.70;;
665;SDS011;315;48.738;9.126;2024-03-08T12:04:44;18.60;;;16.70;;
665;SDS011;315;48.738;9.126;2024-03-08T12:07:11;21.33;;;18.00;;
665;SDS011;315;48.738;9.126;2024-03-08T12:09:39;18.93;;;16.93;;
665;SDS011;315;48.738;9.126;2024-03-08T12:12:06;19.50;;;17.50;;
665;SDS011;315;48.738;9.126;2024-03-08T12:14:33;19.10;;;17.30;;
665;SDS011;315;48.738;9.126;2024-03-08T12:16:59;18.23;;;16.33;;
665;SDS011;315;48.738;9.126;2024-03-08T12:19:26;18.17;;;16.57;;
665;SDS011;315;48.738;9.126;2024-03-08T12:21:53;18.73;;;16.70;;
665;SDS011;315;48.738;9.126;2024-03-08T12:24:19;18.90;;;17.00;;
665;SDS011;315;48.738;9.126;2024-03-08T12:26:46;20.10;;;18.00;;
665;SDS011;315;48.738;9.126;2024-03-08T12:31:55;20.50;;;17.83;;
665;SDS011;315;48.738;9.126;2024-03-08T12:34:26;20.80;;;18.60;;
665;SDS011;315;48.738;9.126;2024-03-08T12:36:53;24.60;;;18.30;;
665;SDS011;315;48.738;9.126;2024-03-08T12:39:20;19.13;;;17.37;;
665;SDS011;315;48.738;9.126;2024-03-08T12:41:53;19.10;;;17.30;;
665;SDS011;315;48.738;9.126;2024-03-08T12:44:28;20.10;;;18.07;;
665;SDS011;315;48.738;9.126;2024-03-08T12:46:54;18.90;;;17.00;;
665;SDS011;315;48.738;9.126;2024-03-08T12:49:20;20.10;;;18.00;;
665;SDS011;315;48.738;9.126;2024-03-08T12:51:48;20.50;;;18.50;;
665;SDS011;315;48.738;9.126;2024-03-08T12:54:14;19.07;;;17.27;;
665;SDS011;315;48.738;9.126;2024-03-08T12:56:39;20.77;;;18.70;;
665;SDS011;315;48.738;9.126;2024-03-08T12:59:06;20.40;;;18.50;;
665;SDS011;315;48.738;9.126;2024-03-08T13:01:33;19.90;;;17.70;;
665;SDS011;315;48.738;9.126;2024-03-08T13:03:58;21.50;;;19.27;;
665;SDS011;315;48.738;9.126;2024-03-08T13:06:27;22.07;;;19.87;;
665;SDS011;315;48.738;9.126;2024-03-08T13:08:53;19.87;;;17.97;;
665;SDS011;315;48.738;9.126;2024-03-08T13:11:20;25.30;;;22.67;;
665;SDS011;315;48.738;9.126;2024-03-08T13:13:46;22.33;;;20.10;;
665;SDS011;315;48.738;9.126;2024-03-08T13:16:12;20.83;;;18.70;;
665;SDS011;315;48.738;9.126;2024-03-08T13:18:42;21.50;;;19.50;;
665;SDS011;315;48.738;9.126;2024-03-08T13:21:07;21.00;;;18.70;;
665;SDS011;315;48.738;9.126;2024-03-08T13:23:34;19.30;;;17.50;;
665;SDS011;315;48.738;9.126;2024-03-08T13:26:05;20.50;;;18.50;;
665;SDS011;315;48.738;9.126;2024-03-08T13:28:32;20.97;;;18.87;;
665;SDS011;315;48.738;9.126;2024-03-08T13:31:01;21.20;;;19.13;;
665;SDS011;315;48.738;9.126;2024-03-08T13:33:35;19.57;;;17.77;;
665;SDS011;315;48.738;9.126;2024-03-08T13:36:02;19.67;;;17.73;;
665;SDS011;315;48.738;9.126;2024-03-08T13:38:31;23.60;;;21.20;;
665;SDS011;315;48.738;9.126;2024-03-08T13:40:58;21.27;;;19.20;;
665;SDS011;315;48.738;9.126;2024-03-08T13:43:23;20.30;;;18.30;;
665;SDS011;315;48.738;9.126;2024-03-08T13:45:49;21.10;;;18.93;;
665;SDS011;315;48.738;9.126;2024-03-08T13:48:15;21.97;;;19.83;;
665;SDS011;315;48.738;9.126;2024-03-08T13:50:41;20.10;;;17.20;;
665;SDS011;315;48.738;9.126;2024-03-08T13:53:06;20.30;;;18.20;;
665;SDS011;315;48.738;9.126;2024-03-08T13:55:32;19.93;;;18.00;;
665;SDS011;315;48.738;9.126;2024-03-08T13:57:58;22.23;;;19.93;;
665;SDS011;315;48.738;9.126;2024-03-08T14:00:25;21.97;;;19.77;;
665;SDS011;315;48.738;9.126;2024-03-08T14:02:52;21.77;;;19.43;;
665;SDS011;315;48.738;9.126;2024-03-08T14:05:19;19.47;;;17.53;;
665;SDS011;315;48.738;9.126;2024-03-08T14:07:45;22.70;;;20.50;;
665;SDS011;315;48.738;9.126;2024-03-08T14:10:13;20.87;;;18.60;;
665;SDS011;315;48.738;9.126;2024-03-08T14:12:40;21.80;;;19.53;;
665;SDS011;315;48.738;9.126;2024-03-08T14:15:05;22.83;;;20.37;;
665;SDS011;315;48.738;9.126;2024-03-08T14:17:32;24.10;;;19.37;;
665;SDS011;315;48.738;9.126;2024-03-08T14:19:58;22.57;;;19.33;;
665;SDS011;315;48.738;9.126;2024-03-08T14:22:24;21.80;;;17.70;;
665;SDS011;315;48.738;9.126;2024-03-08T14:24:49;22.63;;;18.67;;
665;SDS011;315;48.738;9.126;2024-03-08T14:27:16;20.23;;;16.87;;
665;SDS011;315;48.738;9.126;2024-03-08T14:29:43;23.00;;;17.37;;
665;SDS011;315;48.738;9.126;2024-03-08T14:32:09;23.30;;;18.67;;
665;SDS011;315;48.738;9.126;2024-03-08T14:34:35;37.30;;;19.70;;
665;SDS011;315;48.738;9.126;2024-03-08T14:37:00;27.70;;;19.60;;
665;SDS011;315;48.738;9.126;2024-03-08T14:39:30;26.27;;;19.10;;
665;SDS011;315;48.738;9.126;2024-03-08T14:41:58;24.20;;;18.60;;
665;SDS011;315;48.738;9.126;2024-03-08T14:44:25;26.60;;;18.30;;
665;SDS011;315;48.738;9.126;2024-03-08T14:46:51;22.53;;;17.80;;
665;SDS011;315;48.738;9.126;2024-03-08T14:49:17;22.60;;;18.70;;
665;SDS011;315;48.738;9.126;2024-03-08T14:51:43;22.87;;;17.70;;
665;SDS011;315;48.738;9.126;2024-03-08T14:54:09;22.13;;;17.83;;
665;SDS011;315;48.738;9.126;2024-03-08T14:56:35;24.10;;;17.13;;
665;SDS011;315;48.738;9.126;2024-03-08T14:59:06;22.10;;;17.47;;
665;SDS011;315;48.738;9.126;2024-03-08T15:01:32;26.07;;;19.77;;
665;SDS011;315;48.738;9.126;2024-03-08T15:04:01;22.90;;;17.50;;
665;SDS011;315;48.738;9.126;2024-03-08T15:06:36;23.63;;;19.00;;
665;SDS011;315;48.738;9.126;2024-03-08T15:09:03;26.57;;;16.53;;
665;SDS011;315;48.738;9.126;2024-03-08T15:11:37;21.63;;;18.33;;
665;SDS011;315;48.738;9.126;2024-03-08T15:14:07;24.37;;;17.63;;
665;SDS011;315;48.738;9.126;2024-03-08T15:16:39;22.70;;;17.67;;